createdAt,value
2018-11-07T00:00:08.924Z,43.20
2018-11-07T00:05:11.145Z,40.93
2018-11-07T00:10:13.365Z,40.80
2018-11-07T00:15:15.923Z,37.50
2018-11-07T00:20:18.099Z,41.20
2018-11-07T00:25:20.250Z,38.30
2018-11-07T00:30:22.411Z,38.20
2018-11-07T00:35:24.458Z,38.43
2018-11-07T00:40:26.564Z,38.20
2018-11-07T00:45:28.682Z,40.97
2018-11-07T00:50:30.785Z,38.57
2018-11-07T00:55:32.906Z,49.70
2018-11-07T01:00:35.050Z,46.77
2018-11-07T01:05:37.175Z,45.57
2018-11-07T01:10:39.555Z,40.77
2018-11-07T01:15:41.696Z,40.43
2018-11-07T01:20:43.853Z,42.93
2018-11-07T01:25:46.047Z,39.33
2018-11-07T01:30:48.167Z,41.07
2018-11-07T01:35:50.300Z,37.73
2018-11-07T01:40:52.442Z,36.20
2018-11-07T01:45:54.538Z,35.87
2018-11-07T01:50:56.654Z,40.27
2018-11-07T01:55:58.768Z,36.60
2018-11-07T02:01:00.921Z,37.87
2018-11-07T02:06:03.403Z,35.10
2018-11-07T02:11:05.551Z,37.13
2018-11-07T02:16:07.716Z,39.20
2018-11-07T02:21:09.892Z,38.73
2018-11-07T02:26:12.150Z,38.60
2018-11-07T02:31:14.252Z,38.90
2018-11-07T02:36:16.350Z,38.40
2018-11-07T02:41:18.539Z,40.50
2018-11-07T02:46:20.676Z,40.30
2018-11-07T02:51:22.807Z,37.77
2018-11-07T02:56:24.935Z,40.40
2018-11-07T03:01:27.970Z,38.00
2018-11-07T03:06:30.124Z,38.47
2018-11-07T03:11:32.251Z,37.27
2018-11-07T03:16:34.381Z,37.67
2018-11-07T03:21:36.494Z,37.70
2018-11-07T03:26:38.599Z,38.43
2018-11-07T03:31:40.691Z,37.03
2018-11-07T03:36:42.820Z,35.77
2018-11-07T03:41:44.941Z,38.53
2018-11-07T03:46:47.066Z,34.87
2018-11-07T03:51:49.154Z,35.00
2018-11-07T03:56:51.271Z,35.97
2018-11-07T04:01:53.362Z,36.67
2018-11-07T04:06:55.496Z,34.40
2018-11-07T04:11:57.601Z,37.00
2018-11-07T04:16:59.731Z,34.53
2018-11-07T04:22:01.822Z,36.43
2018-11-07T04:27:03.995Z,35.70
2018-11-07T04:32:06.109Z,39.63
2018-11-07T04:37:08.238Z,38.87
2018-11-07T04:42:10.352Z,41.27
2018-11-07T04:47:12.451Z,41.87
2018-11-07T04:52:14.564Z,48.47
2018-11-07T04:57:16.691Z,52.80
2018-11-07T05:02:18.986Z,49.90
2018-11-07T05:07:21.075Z,55.33
2018-11-07T05:12:23.192Z,51.00
2018-11-07T05:17:25.355Z,52.53
2018-11-07T05:22:27.485Z,55.93
2018-11-07T05:27:29.639Z,52.03
2018-11-07T05:32:31.735Z,54.10
2018-11-07T05:37:33.876Z,56.10
2018-11-07T05:42:36.009Z,53.83
2018-11-07T05:47:38.354Z,53.40
2018-11-07T05:52:41.015Z,60.13
2018-11-07T05:57:43.122Z,63.57
2018-11-07T06:02:45.238Z,55.97
2018-11-07T06:07:47.363Z,62.20
2018-11-07T06:12:49.527Z,63.30
2018-11-07T06:17:58.465Z,56.40
2018-11-07T06:23:00.674Z,61.30
2018-11-07T06:28:02.791Z,55.87
2018-11-07T06:33:05.118Z,55.10
2018-11-07T06:38:07.254Z,52.47
2018-11-07T06:43:09.387Z,52.63
2018-11-07T06:48:11.487Z,59.50
2018-11-07T06:53:13.608Z,67.33
2018-11-07T06:58:15.703Z,55.73
2018-11-07T07:03:17.803Z,61.27
2018-11-07T07:08:19.972Z,56.73
2018-11-07T07:13:22.103Z,52.80
2018-11-07T07:18:24.229Z,52.20
2018-11-07T07:23:26.334Z,64.70
2018-11-07T07:28:28.482Z,51.23
2018-11-07T07:33:30.631Z,54.07
2018-11-07T07:38:32.706Z,48.27
2018-11-07T07:43:34.825Z,49.77
2018-11-07T07:48:36.950Z,50.50
2018-11-07T07:53:39.053Z,59.40
2018-11-07T07:58:41.147Z,49.33
2018-11-07T08:03:43.270Z,55.13
2018-11-07T08:08:45.411Z,56.00
2018-11-07T08:13:47.547Z,51.20
2018-11-07T08:18:49.653Z,57.23
2018-11-07T08:23:51.756Z,50.60
2018-11-07T08:28:53.982Z,53.13
2018-11-07T08:33:56.340Z,53.17
2018-11-07T08:38:58.470Z,53.00
2018-11-07T08:44:00.616Z,56.80
2018-11-07T08:49:02.744Z,53.10
2018-11-07T08:54:04.883Z,52.60
2018-11-07T08:59:07.004Z,52.83
2018-11-07T09:04:09.106Z,49.60
2018-11-07T09:09:11.573Z,42.60
2018-11-07T09:14:13.719Z,49.90
2018-11-07T09:19:15.818Z,49.90
2018-11-07T09:24:18.029Z,50.60
2018-11-07T09:29:20.463Z,51.40
2018-11-07T09:34:22.536Z,47.40
2018-11-07T09:39:24.723Z,45.37
2018-11-07T09:44:26.881Z,40.20
2018-11-07T09:49:29.030Z,42.83
2018-11-07T09:54:31.537Z,45.90
2018-11-07T09:59:33.790Z,41.87
2018-11-07T10:04:35.865Z,47.20
2018-11-07T10:09:38.008Z,47.97
2018-11-07T10:14:40.125Z,44.97
2018-11-07T10:19:42.463Z,46.13
2018-11-07T10:24:44.635Z,44.70
2018-11-07T10:29:47.175Z,40.90
2018-11-07T10:34:48.975Z,46.37
2018-11-07T10:39:51.246Z,42.80
2018-11-07T10:44:53.279Z,41.43
2018-11-07T10:49:55.462Z,40.77
2018-11-07T10:54:57.585Z,37.37
2018-11-07T10:59:59.758Z,40.77
2018-11-07T11:05:01.946Z,39.00
2018-11-07T11:10:04.277Z,38.13
2018-11-07T11:15:06.431Z,37.43
2018-11-07T11:20:10.593Z,36.50
2018-11-07T11:25:12.699Z,32.07
2018-11-07T11:30:14.847Z,31.23
2018-11-07T18:38:57.178Z,18.83
2018-11-07T18:43:59.443Z,19.57
2018-11-07T18:49:01.616Z,20.07
2018-11-07T18:54:04.715Z,19.90
2018-11-07T18:59:06.910Z,25.00
2018-11-07T19:04:09.220Z,22.53
2018-11-07T19:09:11.720Z,23.77
2018-11-07T19:14:14.210Z,23.43
2018-11-07T19:19:17.692Z,23.67
2018-11-07T19:24:20.254Z,25.20
2018-11-07T19:29:22.719Z,23.67
2018-11-07T19:34:25.627Z,24.57
2018-11-07T19:39:28.544Z,22.87
2018-11-07T19:44:34.337Z,25.33
2018-11-07T19:49:38.065Z,22.73
2018-11-07T19:54:40.631Z,23.97
2018-11-07T19:59:44.253Z,23.00
2018-11-07T20:04:49.231Z,23.70
2018-11-07T20:09:53.530Z,21.47
2018-11-07T20:14:59.739Z,21.63
2018-11-07T20:20:05.728Z,22.43
2018-11-07T20:25:11.963Z,23.80
2018-11-07T20:30:19.056Z,22.77
2018-11-07T20:35:22.964Z,23.93
2018-11-07T20:40:27.684Z,22.63
2018-11-07T20:45:31.359Z,26.13
2018-11-07T20:50:35.228Z,21.60
2018-11-07T20:55:38.426Z,21.87
2018-11-07T21:00:42.557Z,22.27
2018-11-07T21:05:45.160Z,21.13
2018-11-07T21:10:48.505Z,21.07
2018-11-07T21:15:51.219Z,21.97
2018-11-07T21:20:53.747Z,23.23
2018-11-07T21:25:56.096Z,23.00
2018-11-07T21:30:58.599Z,22.87
2018-11-07T21:36:00.789Z,21.60
2018-11-07T21:41:02.990Z,22.83
2018-11-07T21:46:05.235Z,20.30
2018-11-07T21:51:07.381Z,19.37
2018-11-07T21:56:09.513Z,20.67
2018-11-07T22:01:11.659Z,19.43
2018-11-07T22:06:13.810Z,19.77
2018-11-07T22:11:16.012Z,19.30
2018-11-07T22:16:18.157Z,21.27
2018-11-07T22:21:20.282Z,22.27
2018-11-07T22:26:22.429Z,19.40
2018-11-07T22:31:24.744Z,19.50
2018-11-07T22:36:26.855Z,18.73
2018-11-07T22:41:28.980Z,18.23
2018-11-07T22:46:31.159Z,19.33
2018-11-07T22:51:33.268Z,17.33
2018-11-07T22:56:35.391Z,18.17
2018-11-07T23:01:38.422Z,18.37
2018-11-07T23:06:40.572Z,15.77
2018-11-07T23:11:43.857Z,14.90
2018-11-07T23:16:46.014Z,15.00
2018-11-07T23:21:48.168Z,16.07
2018-11-07T23:26:50.326Z,14.97
2018-11-07T23:31:52.466Z,14.80
2018-11-07T23:36:54.578Z,15.80
2018-11-07T23:41:56.671Z,14.77
2018-11-07T23:46:58.808Z,14.43
2018-11-07T23:52:00.951Z,15.57
2018-11-07T23:57:03.083Z,14.40
